createdAt,value
2019-05-16T00:02:28.444Z,63.46
2019-05-16T00:04:59.146Z,62.81
2019-05-16T00:07:28.683Z,62.79
2019-05-16T00:09:59.002Z,63.27
2019-05-16T00:12:29.222Z,63.05
2019-05-16T00:14:58.642Z,62.59
2019-05-16T00:17:28.383Z,63.28
2019-05-16T00:19:58.940Z,63.01
2019-05-16T00:22:28.846Z,61.62
2019-05-16T00:24:58.094Z,62.36
2019-05-16T00:27:28.084Z,62.50
2019-05-16T00:29:58.139Z,61.43
2019-05-16T00:32:28.150Z,61.45
2019-05-16T00:34:58.376Z,61.36
2019-05-16T00:37:28.705Z,61.26
2019-05-16T00:39:58.758Z,62.18
2019-05-16T00:42:28.598Z,62.81
2019-05-16T00:44:58.349Z,61.76
2019-05-16T00:47:28.426Z,61.64
2019-05-16T00:49:58.228Z,62.36
2019-05-16T00:52:28.865Z,63.48
2019-05-16T00:54:58.112Z,62.94
2019-05-16T00:57:28.149Z,62.95
2019-05-16T00:59:59.175Z,63.46
2019-05-16T01:02:28.906Z,63.80
2019-05-16T01:04:59.041Z,64.05
2019-05-16T01:07:28.482Z,63.89
2019-05-16T01:09:58.375Z,64.47
2019-05-16T01:12:28.413Z,64.88
2019-05-16T01:14:58.438Z,64.97
2019-05-16T01:17:28.337Z,64.50
2019-05-16T01:19:58.042Z,63.96
2019-05-16T01:22:28.992Z,64.03
2019-05-16T01:24:58.506Z,64.06
2019-05-16T01:27:27.982Z,64.53
2019-05-16T01:29:58.409Z,64.89
2019-05-16T01:32:29.124Z,64.78
2019-05-16T01:34:58.979Z,64.81
2019-05-16T01:37:28.074Z,65.18
2019-05-16T01:39:58.753Z,64.72
2019-05-16T01:42:28.000Z,65.12
2019-05-16T01:44:57.840Z,65.43
2019-05-16T01:47:28.837Z,65.34
2019-05-16T01:49:58.308Z,65.42
2019-05-16T01:52:29.058Z,65.54
2019-05-16T01:54:58.792Z,65.42
2019-05-16T01:57:28.306Z,65.49
2019-05-16T01:59:58.977Z,66.14
2019-05-16T02:02:28.920Z,65.97
2019-05-16T02:04:59.029Z,66.32
2019-05-16T02:07:28.619Z,64.25
2019-05-16T02:09:58.289Z,63.84
2019-05-16T02:12:27.882Z,65.95
2019-05-16T02:14:58.746Z,65.71
2019-05-16T02:17:28.898Z,65.65
2019-05-16T02:19:58.530Z,66.43
2019-05-16T02:22:28.498Z,65.82
2019-05-16T02:24:58.593Z,66.55
2019-05-16T02:27:28.739Z,67.53
2019-05-16T02:29:59.897Z,67.24
2019-05-16T02:32:31.354Z,67.26
2019-05-16T02:35:01.282Z,68.04
2019-05-16T02:37:34.441Z,69.39
2019-05-16T02:40:01.853Z,69.52
2019-05-16T02:42:31.403Z,69.84
2019-05-16T02:45:02.477Z,70.18
2019-05-16T02:47:35.005Z,70.56
2019-05-16T02:50:02.552Z,70.49
2019-05-16T02:52:31.962Z,70.29
2019-05-16T02:55:01.135Z,70.71
2019-05-16T02:57:31.575Z,70.88
2019-05-16T03:00:02.161Z,71.29
2019-05-16T03:02:31.405Z,71.28
2019-05-16T03:05:01.133Z,72.10
2019-05-16T03:07:41.178Z,71.77
2019-05-16T03:10:02.547Z,71.41
2019-05-16T03:12:32.093Z,72.02
2019-05-16T03:15:02.621Z,71.96
2019-05-16T03:17:35.841Z,72.62
2019-05-16T03:20:05.384Z,72.06
2019-05-16T03:22:34.418Z,73.24
2019-05-16T03:25:03.820Z,72.75
2019-05-16T03:27:33.223Z,73.14
2019-05-16T03:30:02.982Z,72.54
2019-05-16T03:32:34.117Z,72.88
2019-05-16T03:35:04.972Z,73.13
2019-05-16T03:37:50.143Z,73.32
2019-05-16T03:40:04.975Z,74.23
2019-05-16T03:42:34.011Z,73.76
2019-05-16T03:45:03.041Z,74.20
2019-05-16T03:47:32.480Z,74.35
2019-05-16T03:50:01.487Z,73.65
2019-05-16T03:52:31.183Z,74.15
2019-05-16T03:55:01.565Z,74.35
2019-05-16T03:57:31.899Z,74.52
2019-05-16T04:00:01.303Z,74.95
2019-05-16T04:02:31.061Z,73.45
2019-05-16T04:05:01.810Z,74.37
2019-05-16T04:07:32.012Z,75.41
2019-05-16T04:10:02.286Z,74.41
2019-05-16T04:12:31.494Z,74.33
2019-05-16T04:15:01.974Z,73.93
2019-05-16T04:17:31.878Z,74.00
2019-05-16T04:20:02.105Z,74.10
2019-05-16T04:22:32.038Z,72.49
2019-05-16T04:25:02.049Z,73.56
2019-05-16T04:27:31.701Z,73.11
2019-05-16T04:30:01.862Z,73.70
2019-05-16T04:32:31.749Z,74.13
2019-05-16T04:35:02.477Z,74.21
2019-05-16T04:37:31.856Z,74.20
2019-05-16T04:40:01.625Z,73.99
2019-05-16T04:42:31.360Z,74.73
2019-05-16T04:45:01.340Z,73.79
2019-05-16T04:47:31.688Z,73.63
2019-05-16T04:50:01.965Z,73.82
2019-05-16T04:52:31.241Z,73.34
2019-05-16T04:55:00.959Z,73.40
2019-05-16T04:57:31.349Z,73.36
2019-05-16T05:00:02.148Z,72.90
2019-05-16T05:02:31.765Z,73.17
2019-05-16T05:05:01.373Z,73.68
2019-05-16T05:07:31.511Z,73.38
2019-05-16T05:10:01.084Z,73.26
2019-05-16T05:12:31.470Z,71.82
2019-05-16T05:15:01.706Z,71.09
2019-05-16T05:17:30.950Z,71.09
2019-05-16T05:20:01.021Z,70.87
2019-05-16T05:22:30.652Z,70.54
2019-05-16T05:25:00.202Z,71.10
2019-05-16T05:27:30.322Z,71.26
2019-05-16T05:30:01.056Z,69.96
2019-05-16T05:32:31.516Z,69.46
2019-05-16T05:35:00.583Z,70.40
2019-05-16T05:37:29.907Z,69.76
2019-05-16T05:39:59.974Z,68.48
2019-05-16T05:42:30.527Z,68.35
2019-05-16T05:45:00.412Z,67.81
2019-05-16T05:47:30.694Z,68.57
2019-05-16T05:50:00.772Z,66.84
2019-05-16T05:52:30.491Z,66.48
2019-05-16T05:55:00.695Z,66.98
2019-05-16T05:57:30.363Z,65.99
2019-05-16T06:00:00.530Z,66.43
2019-05-16T06:02:31.019Z,66.76
2019-05-16T06:05:00.147Z,66.90
2019-05-16T06:07:30.202Z,67.09
2019-05-16T06:10:00.362Z,66.18
2019-05-16T06:12:30.345Z,65.13
2019-05-16T06:15:07.564Z,64.85
2019-05-16T06:17:31.017Z,64.16
2019-05-16T06:20:00.360Z,65.12
2019-05-16T06:22:29.980Z,64.12
2019-05-16T06:25:01.141Z,64.47
2019-05-16T06:27:30.460Z,64.70
2019-05-16T06:30:00.475Z,63.08
2019-05-16T06:32:30.808Z,63.62
2019-05-16T06:35:00.240Z,63.51
2019-05-16T06:37:30.967Z,63.80
2019-05-16T06:40:00.766Z,64.00
2019-05-16T06:42:30.111Z,62.97
2019-05-16T06:45:00.761Z,63.25
2019-05-16T06:47:30.594Z,63.91
2019-05-16T06:50:00.380Z,63.25
2019-05-16T06:52:30.235Z,63.39
2019-05-16T06:55:00.750Z,62.01
2019-05-16T06:57:30.391Z,62.13
2019-05-16T07:00:00.729Z,62.87
2019-05-16T07:02:34.240Z,61.63
2019-05-16T07:05:01.358Z,61.05
2019-05-16T07:07:31.246Z,60.45
2019-05-16T07:10:04.337Z,60.42
2019-05-16T07:12:33.826Z,59.98
2019-05-16T07:15:02.383Z,60.58
2019-05-16T07:17:31.741Z,60.47
2019-05-16T07:20:01.240Z,59.78
2019-05-16T07:22:31.163Z,59.94
2019-05-16T07:25:00.403Z,59.11
2019-05-16T07:27:30.864Z,59.09
2019-05-16T07:30:01.334Z,59.02
2019-05-16T07:32:30.564Z,58.55
2019-05-16T07:35:00.335Z,57.61
2019-05-16T07:37:31.605Z,58.25
2019-05-16T07:40:15.579Z,57.66
2019-05-16T07:42:31.901Z,57.77
2019-05-16T07:45:00.934Z,56.27
2019-05-16T07:47:30.931Z,55.57
2019-05-16T07:50:00.141Z,54.54
2019-05-16T07:52:35.202Z,54.54
2019-05-16T07:55:03.516Z,53.95
2019-05-16T07:57:30.752Z,53.26
2019-05-16T08:00:00.335Z,55.71
2019-05-16T08:02:31.297Z,54.40
2019-05-16T08:05:00.851Z,50.33
2019-05-16T08:07:33.606Z,50.33
2019-05-16T08:10:01.673Z,50.70
2019-05-16T08:12:32.992Z,47.70
2019-05-16T08:15:03.349Z,47.40
2019-05-16T08:17:32.364Z,46.17
2019-05-16T08:20:01.407Z,45.01
2019-05-16T08:22:30.928Z,43.77
2019-05-16T08:25:00.438Z,43.29
2019-05-16T08:27:31.200Z,41.95
2019-05-16T08:30:02.467Z,41.79
2019-05-16T08:32:31.404Z,40.90
2019-05-16T08:35:01.241Z,40.36
2019-05-16T08:37:38.445Z,39.04
2019-05-16T08:40:01.639Z,33.66
2019-05-16T08:42:32.207Z,36.64
2019-05-16T08:45:02.178Z,35.94
2019-05-16T08:47:32.223Z,36.24
2019-05-16T08:50:01.790Z,36.24
2019-05-16T08:52:31.724Z,35.68
2019-05-16T08:55:03.463Z,34.88
2019-05-16T08:57:33.247Z,33.88
2019-05-16T09:00:02.659Z,33.23
2019-05-16T09:02:36.606Z,35.40
2019-05-16T09:05:05.947Z,34.16
2019-05-16T09:07:33.623Z,33.54
2019-05-16T09:10:02.710Z,32.98
2019-05-16T09:12:31.766Z,33.89
2019-05-16T09:15:00.830Z,34.01
2019-05-16T09:17:29.892Z,33.13
2019-05-16T09:19:59.329Z,34.48
2019-05-16T09:22:28.535Z,31.43
2019-05-16T09:24:58.201Z,32.84
2019-05-16T09:27:27.500Z,32.23
2019-05-16T09:29:56.885Z,32.26
2019-05-16T09:32:27.881Z,31.58
2019-05-16T09:34:57.531Z,28.70
2019-05-16T09:37:27.019Z,31.23
2019-05-16T09:39:57.288Z,31.94
2019-05-16T09:42:27.768Z,29.15
2019-05-16T09:44:58.097Z,29.88
2019-05-16T09:47:28.438Z,30.02
2019-05-16T09:49:58.094Z,30.14
2019-05-16T09:52:27.559Z,31.32
2019-05-16T09:54:57.798Z,31.10
2019-05-16T09:57:27.746Z,32.99
2019-05-16T09:59:57.420Z,31.56
2019-05-16T10:02:27.361Z,30.40
2019-05-16T10:04:58.057Z,30.98
2019-05-16T10:07:28.297Z,31.91
2019-05-16T10:09:59.049Z,31.50
2019-05-16T10:12:28.102Z,32.93
2019-05-16T10:14:59.683Z,31.61
2019-05-16T10:17:27.884Z,31.47
2019-05-16T10:20:00.115Z,30.42
2019-05-16T10:22:27.957Z,29.09
2019-05-16T10:24:57.353Z,30.59
2019-05-16T10:27:26.735Z,31.80
2019-05-16T10:29:57.485Z,30.42
2019-05-16T10:32:27.434Z,30.27
2019-05-16T10:34:57.272Z,31.53
2019-05-16T10:37:26.980Z,30.30
2019-05-16T10:39:57.308Z,29.45
2019-05-16T10:42:28.952Z,29.36
2019-05-16T10:44:57.874Z,31.50
2019-05-16T10:47:30.663Z,29.91
2019-05-16T10:49:57.657Z,30.62
2019-05-16T10:52:27.105Z,31.44
2019-05-16T10:55:01.839Z,31.03
2019-05-16T10:57:29.771Z,30.78
2019-05-16T11:00:09.110Z,28.73
2019-05-16T11:02:29.081Z,30.59
2019-05-16T11:05:14.187Z,32.14
2019-05-16T11:07:29.769Z,30.93
2019-05-16T11:10:03.238Z,30.14
2019-05-16T11:12:46.127Z,28.54
2019-05-16T11:15:01.195Z,29.27
2019-05-16T11:17:31.311Z,29.98
2019-05-16T11:20:00.676Z,30.58
2019-05-16T11:22:30.126Z,31.05
2019-05-16T11:24:59.198Z,31.49
2019-05-16T11:27:28.271Z,29.23
2019-05-16T11:29:57.297Z,29.49
2019-05-16T11:32:26.953Z,28.95
2019-05-16T11:34:56.085Z,30.82
2019-05-16T11:37:27.749Z,30.77
2019-05-16T11:39:57.160Z,30.47
2019-05-16T11:42:27.984Z,29.65
2019-05-16T11:44:58.059Z,28.67
2019-05-16T11:47:27.350Z,30.06
2019-05-16T11:49:57.081Z,28.75
2019-05-16T11:52:26.170Z,31.54
2019-05-16T11:54:57.202Z,29.34
2019-05-16T11:57:25.927Z,28.76
2019-05-16T11:59:56.828Z,30.07
2019-05-16T12:02:27.881Z,30.32
2019-05-16T12:04:57.842Z,30.15
2019-05-16T12:07:33.492Z,29.71
2019-05-16T12:09:57.787Z,30.11
2019-05-16T12:12:27.220Z,30.43
2019-05-16T12:14:58.383Z,28.69
2019-05-16T12:17:28.040Z,29.61
2019-05-16T12:19:57.631Z,29.27
2019-05-16T12:22:26.879Z,29.53
2019-05-16T12:24:57.464Z,31.37
2019-05-16T12:27:32.700Z,28.83
2019-05-16T12:29:58.982Z,29.88
2019-05-16T12:32:28.257Z,28.55
2019-05-16T12:34:57.355Z,28.31
2019-05-16T12:37:27.589Z,28.92
2019-05-16T12:39:57.366Z,29.63
2019-05-16T12:42:27.116Z,27.35
2019-05-16T12:44:56.458Z,27.89
2019-05-16T12:47:25.501Z,28.36
2019-05-16T12:49:56.499Z,27.85
2019-05-16T12:52:27.112Z,27.70
2019-05-16T12:54:57.044Z,26.68
2019-05-16T12:57:30.154Z,28.48
2019-05-16T12:59:57.454Z,27.83
2019-05-16T13:02:27.318Z,27.24
2019-05-16T13:04:57.562Z,28.33
2019-05-16T13:07:27.273Z,28.42
2019-05-16T13:09:56.851Z,28.88
2019-05-16T13:12:27.100Z,27.47
2019-05-16T13:14:56.271Z,30.31
2019-05-16T13:17:27.522Z,27.91
2019-05-16T13:19:57.598Z,28.73
2019-05-16T13:22:27.579Z,32.38
2019-05-16T13:24:57.470Z,29.62
2019-05-16T13:27:26.995Z,29.15
2019-05-16T13:29:58.103Z,31.56
2019-05-16T13:32:27.100Z,28.89
2019-05-16T13:34:58.973Z,29.49
2019-05-16T13:37:27.642Z,29.07
2019-05-16T13:39:56.943Z,29.34
2019-05-16T13:42:27.246Z,32.80
2019-05-16T13:44:57.745Z,32.25
2019-05-16T13:47:27.018Z,30.40
2019-05-16T13:49:56.052Z,31.19
2019-05-16T13:52:28.279Z,32.41
2019-05-16T13:54:56.533Z,32.58
2019-05-16T13:57:28.313Z,31.06
2019-05-16T13:59:57.141Z,33.82
2019-05-16T14:02:26.790Z,32.57
2019-05-16T14:04:56.827Z,32.62
2019-05-16T14:07:26.329Z,34.39
2019-05-16T14:09:57.869Z,31.89
2019-05-16T14:12:26.854Z,31.82
2019-05-16T14:14:56.231Z,31.12
2019-05-16T14:17:27.514Z,32.73
2019-05-16T14:19:58.012Z,31.62
2019-05-16T14:22:27.761Z,33.49
2019-05-16T14:24:57.130Z,32.63
2019-05-16T14:27:26.866Z,32.51
2019-05-16T14:29:57.839Z,34.64
2019-05-16T14:32:27.666Z,34.55
2019-05-16T14:34:59.005Z,32.76
2019-05-16T14:37:27.715Z,32.00
2019-05-16T14:40:01.019Z,33.58
2019-05-16T14:42:28.244Z,32.88
2019-05-16T14:45:09.964Z,33.83
2019-05-16T14:47:28.712Z,35.36
2019-05-16T14:49:57.751Z,34.09
2019-05-16T14:52:27.221Z,38.72
2019-05-16T14:54:57.525Z,35.95
2019-05-16T14:57:27.368Z,34.73
2019-05-16T14:59:56.695Z,38.35
2019-05-16T15:02:27.465Z,36.29
2019-05-16T15:04:57.053Z,36.87
2019-05-16T15:07:27.673Z,34.92
2019-05-16T15:09:56.823Z,37.34
2019-05-16T15:12:26.855Z,37.93
2019-05-16T15:14:58.673Z,36.91
2019-05-16T15:17:27.568Z,37.99
2019-05-16T15:19:57.198Z,39.17
2019-05-16T15:22:27.347Z,40.42
2019-05-16T15:24:59.045Z,40.46
2019-05-16T15:27:27.331Z,40.31
2019-05-16T15:29:57.704Z,38.89
2019-05-16T15:32:31.419Z,39.96
2019-05-16T15:34:57.626Z,39.30
2019-05-16T15:37:27.443Z,42.04
2019-05-16T15:39:57.428Z,39.62
2019-05-16T15:42:27.746Z,40.41
2019-05-16T15:44:56.903Z,40.74
2019-05-16T15:47:27.855Z,40.06
2019-05-16T15:49:59.714Z,41.09
2019-05-16T15:52:29.044Z,39.69
2019-05-16T15:54:59.333Z,41.00
2019-05-16T15:57:30.912Z,41.58
2019-05-16T15:59:59.189Z,41.51
2019-05-16T16:02:28.221Z,40.14
2019-05-16T16:04:57.650Z,39.80
2019-05-16T16:07:27.220Z,39.17
2019-05-16T16:09:57.669Z,41.07
2019-05-16T16:12:26.809Z,40.28
2019-05-16T16:14:57.335Z,39.88
2019-05-16T16:17:29.047Z,40.05
2019-05-16T16:19:57.891Z,40.82
2019-05-16T16:22:27.051Z,40.64
2019-05-16T16:24:57.507Z,40.64
2019-05-16T16:27:27.503Z,40.82
2019-05-16T16:29:56.589Z,40.36
2019-05-16T16:32:26.902Z,41.33
2019-05-16T16:34:57.518Z,41.94
2019-05-16T16:37:27.472Z,39.88
2019-05-16T16:39:57.635Z,40.14
2019-05-16T16:42:27.374Z,40.17
2019-05-16T16:44:56.983Z,40.14
2019-05-16T16:47:26.977Z,38.18
2019-05-16T16:49:59.264Z,40.74
2019-05-16T16:52:27.465Z,39.92
2019-05-16T16:54:56.990Z,39.21
2019-05-16T16:57:27.042Z,38.43
2019-05-16T16:59:56.331Z,39.02
2019-05-16T17:02:27.849Z,38.61
2019-05-16T17:05:01.345Z,39.36
2019-05-16T17:07:27.679Z,40.12
2019-05-16T17:09:57.067Z,39.23
2019-05-16T17:12:26.167Z,39.06
2019-05-16T17:14:56.954Z,38.13
2019-05-16T17:17:26.557Z,38.63
2019-05-16T17:19:56.777Z,40.58
2019-05-16T17:22:26.642Z,40.09
2019-05-16T17:24:56.727Z,40.01
2019-05-16T17:27:26.820Z,40.13
2019-05-16T17:29:57.274Z,40.63
2019-05-16T17:32:27.512Z,39.05
2019-05-16T17:34:56.767Z,39.55
2019-05-16T17:37:26.683Z,40.03
2019-05-16T17:39:56.920Z,39.48
2019-05-16T17:42:27.151Z,39.04
2019-05-16T17:44:56.661Z,39.75
2019-05-16T17:47:26.290Z,40.94
2019-05-16T17:49:55.404Z,40.54
2019-05-16T17:52:27.172Z,42.04
2019-05-16T17:54:55.353Z,41.66
2019-05-16T17:57:24.474Z,40.32
2019-05-16T17:59:53.473Z,42.42
2019-05-16T18:02:22.796Z,41.91
2019-05-16T18:04:51.833Z,43.06
2019-05-16T18:07:21.271Z,42.71
2019-05-16T18:09:50.301Z,42.17
2019-05-16T18:12:19.708Z,43.20
2019-05-16T18:14:50.443Z,43.58
2019-05-16T18:17:19.693Z,43.94
2019-05-16T18:19:48.716Z,43.82
2019-05-16T18:22:17.780Z,45.71
2019-05-16T18:24:47.528Z,44.44
2019-05-16T18:27:17.187Z,45.63
2019-05-16T18:29:47.171Z,45.15
2019-05-16T18:32:17.065Z,45.07
2019-05-16T18:34:46.303Z,46.22
2019-05-16T18:37:17.289Z,47.07
2019-05-16T18:39:47.396Z,46.56
2019-05-16T18:42:16.886Z,46.70
2019-05-16T18:44:47.207Z,47.24
2019-05-16T18:47:16.781Z,47.98
2019-05-16T18:49:47.309Z,47.29
2019-05-16T18:52:17.374Z,47.84
2019-05-16T18:54:46.681Z,49.01
2019-05-16T18:57:17.605Z,50.18
2019-05-16T18:59:46.765Z,50.35
2019-05-16T19:02:17.759Z,50.10
2019-05-16T19:04:49.794Z,50.33
2019-05-16T19:07:17.411Z,51.12
2019-05-16T19:09:46.562Z,51.90
2019-05-16T19:12:16.978Z,53.68
2019-05-16T19:14:47.289Z,53.33
2019-05-16T19:17:22.208Z,53.65
2019-05-16T19:19:47.179Z,54.61
2019-05-16T19:22:17.114Z,54.41
2019-05-16T19:24:46.510Z,54.88
2019-05-16T19:27:17.219Z,55.42
2019-05-16T19:29:46.650Z,54.92
2019-05-16T19:32:17.211Z,54.81
2019-05-16T19:34:49.196Z,55.45
2019-05-16T19:37:17.799Z,56.16
2019-05-16T19:39:46.861Z,56.07
2019-05-16T19:42:17.118Z,56.22
2019-05-16T19:44:48.549Z,56.47
2019-05-16T19:47:17.861Z,57.22
2019-05-16T19:49:46.934Z,57.45
2019-05-16T19:52:16.500Z,57.61
2019-05-16T19:54:47.077Z,57.46
2019-05-16T19:57:17.459Z,58.44
2019-05-16T19:59:47.366Z,58.28
2019-05-16T20:02:16.674Z,58.86
2019-05-16T20:04:47.118Z,59.44
2019-05-16T20:07:16.886Z,60.06
2019-05-16T20:09:46.943Z,60.68
2019-05-16T20:12:17.198Z,60.86
2019-05-16T20:14:47.255Z,60.85
2019-05-16T20:17:19.208Z,60.98
2019-05-16T20:19:47.252Z,61.19
2019-05-16T20:22:16.737Z,61.72
2019-05-16T20:24:46.873Z,61.91
2019-05-16T20:27:17.099Z,62.81
2019-05-16T20:29:47.464Z,63.47
2019-05-16T20:32:17.090Z,63.89
2019-05-16T20:34:46.827Z,63.22
2019-05-16T20:37:17.364Z,62.36
2019-05-16T20:39:46.700Z,63.75
2019-05-16T20:42:17.051Z,64.09
2019-05-16T20:44:49.654Z,64.33
2019-05-16T20:47:17.106Z,65.93
2019-05-16T20:49:47.749Z,66.79
2019-05-16T20:52:17.467Z,67.81
2019-05-16T20:54:49.820Z,68.39
2019-05-16T20:57:17.431Z,68.42
2019-05-16T20:59:49.077Z,67.77
2019-05-16T21:02:17.629Z,68.20
2019-05-16T21:04:46.758Z,69.33
2019-05-16T21:07:17.219Z,70.34
2019-05-16T21:09:46.735Z,69.79
2019-05-16T21:12:17.251Z,69.96
2019-05-16T21:14:46.374Z,70.94
2019-05-16T21:17:17.381Z,70.15
2019-05-16T21:19:48.355Z,70.40
2019-05-16T21:22:19.363Z,70.88
2019-05-16T21:24:48.571Z,69.92
2019-05-16T21:27:19.129Z,71.07
2019-05-16T21:29:48.194Z,70.81
2019-05-16T21:32:17.505Z,70.53
2019-05-16T21:34:46.963Z,71.04
2019-05-16T21:37:17.952Z,70.80
2019-05-16T21:39:47.591Z,69.82
2019-05-16T21:42:16.737Z,70.71
2019-05-16T21:44:46.674Z,70.99
2019-05-16T21:47:19.389Z,70.80
2019-05-16T21:49:47.488Z,71.24
2019-05-16T21:52:16.569Z,71.17
2019-05-16T21:54:47.224Z,72.06
2019-05-16T21:57:19.675Z,72.46
2019-05-16T21:59:47.909Z,72.71
2019-05-16T22:02:17.337Z,72.89
2019-05-16T22:04:47.377Z,73.17
2019-05-16T22:07:16.668Z,73.04
2019-05-16T22:09:46.570Z,72.80
2019-05-16T22:12:17.341Z,73.03
2019-05-16T22:14:50.607Z,73.25
2019-05-16T22:17:20.405Z,73.04
2019-05-16T22:19:49.453Z,73.20
2019-05-16T22:22:19.118Z,73.20
2019-05-16T22:24:49.312Z,73.22
2019-05-16T22:27:18.823Z,72.55
2019-05-16T22:29:47.875Z,71.18
2019-05-16T22:32:16.947Z,71.47
2019-05-16T22:34:47.675Z,71.47
2019-05-16T22:37:17.251Z,72.79
2019-05-16T22:39:46.922Z,73.22
2019-05-16T22:42:17.601Z,73.84
2019-05-16T22:44:46.985Z,73.84
2019-05-16T22:47:17.273Z,74.21
2019-05-16T22:49:47.567Z,73.40
2019-05-16T22:52:17.274Z,74.48
2019-05-16T22:54:47.600Z,74.27
2019-05-16T22:57:17.736Z,73.99
2019-05-16T22:59:46.897Z,74.57
2019-05-16T23:02:16.822Z,74.79
2019-05-16T23:04:47.485Z,74.47
2019-05-16T23:07:16.782Z,75.41
2019-05-16T23:09:47.243Z,75.98
2019-05-16T23:12:17.398Z,76.08
2019-05-16T23:14:46.967Z,76.05
2019-05-16T23:17:17.305Z,75.77
2019-05-16T23:19:47.553Z,76.27
2019-05-16T23:22:16.817Z,76.25
2019-05-16T23:24:46.393Z,77.05
2019-05-16T23:27:15.523Z,77.09
2019-05-16T23:29:47.412Z,77.48
2019-05-16T23:32:16.583Z,77.10
2019-05-16T23:34:46.605Z,77.36
2019-05-16T23:37:15.917Z,77.33
2019-05-16T23:39:47.314Z,77.41
2019-05-16T23:42:15.740Z,77.83
2019-05-16T23:44:47.194Z,77.39
2019-05-16T23:47:16.528Z,76.81
2019-05-16T23:49:47.297Z,76.59
2019-05-16T23:52:16.868Z,76.75
2019-05-16T23:54:47.519Z,76.47
2019-05-16T23:57:16.660Z,75.96
2019-05-16T23:59:47.317Z,75.64
